OEDF/DMM METAR and TAF weather

Enter ICAO airport designator
Station Type Date Time Source
OEDF METAR 2020/07/14 06:00 UTC NOAA

OEDF 140600Z 31008KT CAVOK 40/05 Q0998 NOSIG


Station Type Date Time Source
OEDF Decoded METAR 2020/07/14 06:00 UTC NOAA

Dammam-King Fahd International Airport, Saudi Arabia (OEDF) 26-28N 049-47E
Jul 14, 2020 - 02:00 AM EDT / 2020.07.14 0600 UTC
Wind: from the NW (310 degrees) at 9 MPH (8 KT):0
Visibility: greater than 7 mile(s):0
Temperature: 104 F (40 C)
Dew Point: 41 F (5 C)
Relative Humidity: 11%
Pressure (altimeter): 29.47 in. Hg (0998 hPa)
ob: OEDF 140600Z 31008KT CAVOK 40/05 Q0998 NOSIG
cycle: 6

Station Type Date Time Source
OEDF TAF 2020/07/14 06:21 UTC NOAA

TAF TAF OEDF 140315Z 1406/1512 04013KT CAVOK
BECMG 1418/1420 VRB05KT

Example: see airport list